Time;durP1;ratioP1;P1;durP2;ratioP2;P2;SDS_P1;SDS_P2;PMS_P1;PMS_P2;Temp;Humidity;BMP_temperature;BMP_pressure;BME280_temperature;BME280_humidity;BME280_pressure;Samples;Min_cycle;Max_cycle;Signal;HPM_P1;HPM_P2
2023/03/07 00:00:03;;;;;;;34.20;20.45;;;2.30;99.90;;;;;;2093117;28;20440;-80
2023/03/07 00:01:05;;;;;;;38.75;21.33;;;2.40;99.90;;;;;;2090493;28;20090;-79
2023/03/07 00:02:06;;;;;;;35.88;21.52;;;2.30;99.90;;;;;;2089923;28;20519;-80
2023/03/07 00:03:08;;;;;;;40.33;22.00;;;2.40;99.90;;;;;;2090134;28;20062;-80
2023/03/07 00:04:08;;;;;;;39.00;20.75;;;2.40;99.90;;;;;;2083758;28;20511;-79
2023/03/07 00:05:09;;;;;;;35.83;20.77;;;2.40;99.90;;;;;;2073719;28;20619;-80
2023/03/07 00:06:10;;;;;;;37.97;21.00;;;2.40;99.90;;;;;;2082144;28;20044;-79
2023/03/07 00:07:11;;;;;;;35.38;20.10;;;2.40;99.90;;;;;;2089662;28;20032;-81
2023/03/07 00:08:12;;;;;;;36.20;20.75;;;2.40;99.90;;;;;;2092008;28;20048;-80
2023/03/07 00:09:12;;;;;;;34.63;20.38;;;2.40;99.90;;;;;;2079894;28;20029;-81
2023/03/07 00:10:13;;;;;;;35.42;20.63;;;2.40;99.90;;;;;;2080913;28;20435;-80
2023/03/07 00:11:13;;;;;;;35.10;20.35;;;2.40;99.90;;;;;;2085755;28;20025;-81
2023/03/07 00:12:14;;;;;;;36.53;20.80;;;2.50;99.90;;;;;;2092470;28;20169;-80
2023/03/07 00:13:14;;;;;;;35.35;19.70;;;2.50;99.90;;;;;;2090685;28;20185;-81
2023/03/07 00:14:15;;;;;;;34.50;20.02;;;2.50;99.90;;;;;;2090814;28;20486;-81
2023/03/07 00:15:16;;;;;;;37.63;20.95;;;2.50;99.90;;;;;;2090850;28;20038;-82
2023/03/07 00:16:19;;;;;;;39.33;21.67;;;2.50;99.90;;;;;;2090979;28;20025;-80
2023/03/07 00:17:20;;;;;;;37.95;21.05;;;2.50;99.90;;;;;;2090514;28;20386;-82
2023/03/07 00:18:21;;;;;;;36.47;20.50;;;2.50;99.90;;;;;;2090788;28;20083;-80
2023/03/07 00:19:21;;;;;;;37.38;20.92;;;2.50;99.90;;;;;;2087634;28;20040;-79
2023/03/07 00:20:22;;;;;;;38.40;21.52;;;2.50;99.90;;;;;;2088419;28;20035;-79
2023/03/07 00:21:23;;;;;;;36.90;21.05;;;2.50;99.90;;;;;;2087675;28;20029;-79
2023/03/07 00:22:23;;;;;;;37.50;21.35;;;2.50;99.90;;;;;;2090184;28;20136;-79
2023/03/07 00:23:24;;;;;;;34.05;20.02;;;2.50;99.90;;;;;;2079068;28;20025;-80
2023/03/07 00:24:25;;;;;;;34.95;20.17;;;2.50;99.90;;;;;;2088945;28;20487;-79
2023/03/07 00:25:25;;;;;;;37.25;20.77;;;2.50;99.90;;;;;;2078580;28;20035;-75
2023/03/07 00:26:26;;;;;;;35.50;20.60;;;2.50;99.90;;;;;;2080434;28;20025;-80
2023/03/07 00:27:29;;;;;;;37.15;21.27;;;2.50;99.90;;;;;;2087470;28;20051;-77
2023/03/07 00:28:30;;;;;;;36.88;21.17;;;2.50;99.90;;;;;;2085244;28;20045;-78
2023/03/07 00:29:30;;;;;;;35.72;20.73;;;2.50;99.90;;;;;;2077206;28;20071;-78
2023/03/07 00:30:31;;;;;;;37.58;20.95;;;2.50;99.90;;;;;;2083531;28;20059;-79
2023/03/07 00:31:32;;;;;;;38.63;21.63;;;2.50;99.90;;;;;;2081269;28;20142;-78
2023/03/07 00:32:33;;;;;;;38.88;21.70;;;2.50;99.90;;;;;;2080386;28;20435;-79
2023/03/07 00:33:34;;;;;;;39.47;21.73;;;2.60;99.90;;;;;;2088226;28;20027;-78
2023/03/07 00:34:34;;;;;;;37.30;20.98;;;2.50;99.90;;;;;;2083779;28;20411;-80
2023/03/07 00:35:35;;;;;;;38.45;21.45;;;2.50;99.90;;;;;;2082026;28;20511;-79
2023/03/07 00:36:36;;;;;;;37.67;20.88;;;2.60;99.90;;;;;;2088665;28;20029;-80
2023/03/07 00:37:36;;;;;;;35.95;20.08;;;2.60;99.90;;;;;;2077137;28;20060;-77
2023/03/07 00:38:37;;;;;;;38.58;21.55;;;2.60;99.90;;;;;;2071148;28;20033;-79
2023/03/07 00:39:37;;;;;;;38.42;21.02;;;2.60;99.90;;;;;;2073298;28;20136;-79
2023/03/07 00:40:38;;;;;;;38.60;21.92;;;2.60;99.90;;;;;;2081570;28;20765;-79
2023/03/07 00:41:38;;;;;;;38.53;21.65;;;2.60;99.90;;;;;;2081473;28;20040;-80
2023/03/07 00:42:39;;;;;;;37.20;20.77;;;2.60;99.90;;;;;;2081473;28;20414;-79
2023/03/07 00:43:40;;;;;;;35.97;20.10;;;2.60;99.90;;;;;;2083909;28;20804;-79
2023/03/07 00:44:41;;;;;;;40.25;21.98;;;2.60;99.90;;;;;;2089318;28;20699;-79
2023/03/07 00:45:41;;;;;;;37.55;21.30;;;2.60;99.90;;;;;;2081764;28;20033;-79
2023/03/07 00:46:42;;;;;;;39.35;21.92;;;2.60;99.90;;;;;;2081688;28;20029;-79
2023/03/07 00:47:42;;;;;;;39.92;22.08;;;2.60;99.90;;;;;;2083394;28;20181;-79
2023/03/07 00:48:43;;;;;;;36.05;20.58;;;2.60;99.90;;;;;;2081530;28;20765;-80
2023/03/07 00:49:45;;;;;;;36.63;20.73;;;2.60;99.90;;;;;;2073492;28;20029;-79
2023/03/07 00:50:48;;;;;;;36.60;20.95;;;2.60;99.90;;;;;;2072867;28;20183;-79
2023/03/07 00:51:48;;;;;;;37.55;21.30;;;2.60;99.90;;;;;;2084953;28;20123;-79
2023/03/07 00:52:49;;;;;;;36.92;20.70;;;2.60;99.90;;;;;;2085160;28;20379;-79
2023/03/07 00:53:50;;;;;;;36.05;20.90;;;2.60;99.90;;;;;;2089932;28;20032;-79
2023/03/07 00:54:52;;;;;;;38.63;21.40;;;2.60;99.90;;;;;;2076886;28;20032;-79
2023/03/07 00:55:57;;;;;;;37.97;21.08;;;2.60;99.90;;;;;;2077248;28;20037;-78
2023/03/07 00:56:57;;;;;;;37.17;20.77;;;2.60;99.90;;;;;;2076970;28;20737;-80
2023/03/07 00:57:58;;;;;;;36.10;20.75;;;2.60;99.90;;;;;;2083019;28;20024;-80
2023/03/07 00:58:59;;;;;;;36.47;21.52;;;2.60;99.90;;;;;;2078834;28;20025;-81
2023/03/07 00:59:59;;;;;;;33.83;19.52;;;2.60;99.90;;;;;;2078637;28;20487;-79
2023/03/07 01:01:01;;;;;;;34.45;20.15;;;2.60;99.90;;;;;;2077520;28;20029;-79
2023/03/07 01:02:02;;;;;;;33.03;19.58;;;2.60;99.90;;;;;;2071627;28;20017;-80
2023/03/07 01:03:03;;;;;;;36.05;19.88;;;2.60;99.90;;;;;;2079828;28;20627;-79
2023/03/07 01:04:04;;;;;;;34.83;20.20;;;2.60;99.90;;;;;;2089584;28;20094;-80
2023/03/07 01:05:05;;;;;;;36.25;20.67;;;2.60;99.90;;;;;;2086378;28;20044;-80
2023/03/07 01:06:08;;;;;;;35.97;20.73;;;2.60;99.90;;;;;;2080174;28;20028;-80
2023/03/07 01:07:09;;;;;;;36.42;20.48;;;2.60;99.90;;;;;;2067586;28;20547;-80
2023/03/07 01:08:09;;;;;;;34.33;20.10;;;2.60;99.90;;;;;;2070046;28;20018;-79
2023/03/07 01:09:10;;;;;;;35.28;20.48;;;2.50;99.90;;;;;;2076171;28;20033;-79
2023/03/07 01:10:11;;;;;;;34.42;19.65;;;2.50;99.90;;;;;;2092406;28;20025;-80
2023/03/07 01:11:12;;;;;;;34.35;20.45;;;2.60;99.90;;;;;;2081824;28;20580;-80
2023/03/07 01:12:12;;;;;;;33.55;19.58;;;2.60;99.90;;;;;;2082243;28;20029;-80
2023/03/07 01:13:14;;;;;;;35.60;20.77;;;2.60;99.90;;;;;;2081865;28;20013;-80
2023/03/07 01:14:14;;;;;;;36.78;20.63;;;2.60;99.90;;;;;;2085254;28;20021;-81
2023/03/07 01:15:15;;;;;;;36.03;20.70;;;2.60;99.90;;;;;;2083525;28;20036;-80
2023/03/07 01:16:17;;;;;;;36.67;20.70;;;2.60;99.90;;;;;;2079171;28;20543;-80
2023/03/07 01:17:17;;;;;;;35.63;20.23;;;2.60;99.90;;;;;;2086783;28;20032;-79
2023/03/07 01:18:19;;;;;;;36.63;20.30;;;2.60;99.90;;;;;;2079466;28;20024;-80
2023/03/07 01:19:20;;;;;;;36.80;20.63;;;2.60;99.90;;;;;;2081403;28;20029;-80
2023/03/07 01:20:21;;;;;;;36.65;20.55;;;2.60;99.90;;;;;;2083225;28;20106;-80
2023/03/07 01:21:33;;;;;;;36.75;20.85;;;2.60;99.90;;;;;;2091234;28;20601;-80
2023/03/07 01:22:36;;;;;;;35.75;19.80;;;2.60;99.90;;;;;;2080822;28;20091;-81
2023/03/07 01:23:39;;;;;;;37.92;21.23;;;2.60;99.90;;;;;;2079121;28;20074;-80
2023/03/07 01:24:40;;;;;;;35.15;20.20;;;2.60;99.90;;;;;;2078844;28;20977;-81
2023/03/07 01:25:41;;;;;;;35.50;20.02;;;2.60;99.90;;;;;;2083212;28;20044;-80
2023/03/07 01:26:43;;;;;;;35.83;20.40;;;2.60;99.90;;;;;;2087488;28;20044;-81
2023/03/07 01:27:44;;;;;;;34.78;20.90;;;2.60;99.90;;;;;;2091384;28;20020;-81
2023/03/07 01:28:45;;;;;;;33.42;19.60;;;2.60;99.90;;;;;;2080654;28;20026;-79
2023/03/07 01:29:46;;;;;;;33.88;19.75;;;2.60;99.90;;;;;;2080012;28;20600;-79
2023/03/07 01:30:58;;;;;;;32.28;19.25;;;2.60;99.90;;;;;;2079786;28;20091;-81
2023/03/07 01:31:59;;;;;;;32.00;18.77;;;2.60;99.90;;;;;;2083408;28;20035;-81
2023/03/07 01:33:01;;;;;;;32.22;19.58;;;2.60;99.90;;;;;;2090357;28;20021;-81
2023/03/07 01:34:03;;;;;;;38.40;21.20;;;2.70;99.90;;;;;;2087298;28;20016;-79
2023/03/07 01:35:08;;;;;;;32.42;19.35;;;2.70;99.90;;;;;;2079782;28;20033;-79
2023/03/07 01:36:35;;;;;;;31.45;18.98;;;2.70;99.90;;;;;;2085138;28;20032;-80
2023/03/07 01:37:37;;;;;;;34.97;19.45;;;2.70;99.90;;;;;;2081098;28;20074;-79
2023/03/07 01:38:40;;;;;;;33.13;19.60;;;2.70;99.90;;;;;;2072734;28;20037;-79
2023/03/07 01:39:41;;;;;;;30.95;18.73;;;2.70;99.90;;;;;;2085013;28;20567;-80
2023/03/07 01:40:44;;;;;;;38.00;21.33;;;2.70;99.90;;;;;;2092609;28;20037;-80
2023/03/07 01:41:45;;;;;;;35.30;20.80;;;2.70;99.90;;;;;;2076585;28;20190;-80
2023/03/07 01:42:47;;;;;;;36.10;21.30;;;2.70;99.90;;;;;;2078864;28;20127;-80
2023/03/07 01:43:49;;;;;;;36.47;21.10;;;2.70;99.90;;;;;;2086939;28;20024;-79
2023/03/07 01:45:05;;;;;;;35.45;20.95;;;2.70;99.90;;;;;;2087150;28;20370;-79
2023/03/07 01:46:51;;;;;;;39.92;21.05;;;2.70;99.90;;;;;;2088424;28;20093;-79
2023/03/07 01:47:52;;;;;;;38.77;21.33;;;2.70;99.90;;;;;;2091231;28;20143;-79
2023/03/07 01:49:06;;;;;;;37.70;21.23;;;2.70;99.90;;;;;;2090788;28;20297;-79
2023/03/07 01:50:13;;;;;;;37.25;21.63;;;2.60;99.90;;;;;;2081961;28;20037;-80
2023/03/07 01:51:14;;;;;;;35.65;20.67;;;2.60;99.90;;;;;;2088407;28;20086;-80
2023/03/07 01:52:28;;;;;;;37.40;21.88;;;2.60;99.90;;;;;;2093603;28;20482;-80
2023/03/07 01:53:31;;;;;;;35.75;20.85;;;2.60;99.90;;;;;;2091386;28;20090;-80
2023/03/07 01:54:34;;;;;;;34.78;20.42;;;2.60;99.90;;;;;;2080182;28;20513;-81
2023/03/07 01:55:36;;;;;;;36.92;21.60;;;2.60;99.90;;;;;;2091529;28;20524;-80
2023/03/07 01:56:52;;;;;;;38.10;22.02;;;2.50;99.90;;;;;;2080405;28;20666;-80
2023/03/07 01:57:55;;;;;;;37.90;21.40;;;2.50;99.90;;;;;;2068919;28;20148;-82
2023/03/07 01:58:56;;;;;;;37.20;22.10;;;2.50;99.90;;;;;;2066849;28;20033;-79
2023/03/07 02:00:00;;;;;;;36.88;21.60;;;2.50;99.90;;;;;;2074939;28;20029;-79
2023/03/07 02:01:00;;;;;;;37.88;22.05;;;2.50;99.90;;;;;;2070469;28;20535;-78
2023/03/07 02:02:10;;;;;;;37.75;22.02;;;2.40;99.90;;;;;;2076747;28;20032;-79
2023/03/07 02:03:37;;;;;;;37.58;21.55;;;2.40;99.90;;;;;;2089207;28;20037;-79
2023/03/07 02:05:04;;;;;;;37.70;21.63;;;2.40;99.90;;;;;;2089000;28;20139;-79
2023/03/07 02:06:09;;;;;;;39.22;22.00;;;2.40;99.90;;;;;;2079777;28;20519;-80
2023/03/07 02:07:11;;;;;;;39.35;22.88;;;2.30;99.90;;;;;;2075364;28;20029;-80
2023/03/07 02:08:15;;;;;;;39.50;22.92;;;2.30;99.90;;;;;;2082172;28;20017;-79
2023/03/07 02:09:19;;;;;;;38.28;21.60;;;2.30;99.90;;;;;;2077325;28;20114;-80
2023/03/07 02:10:22;;;;;;;37.17;21.65;;;2.30;99.90;;;;;;2078476;28;20072;-80
2023/03/07 02:11:23;;;;;;;40.83;23.25;;;2.30;99.90;;;;;;2093052;28;20036;-80
2023/03/07 02:12:24;;;;;;;39.08;21.58;;;2.30;99.90;;;;;;2088788;28;20029;-80
2023/03/07 02:13:24;;;;;;;35.80;21.75;;;2.30;99.90;;;;;;2089598;28;20927;-80
2023/03/07 02:14:25;;;;;;;40.60;22.88;;;2.30;99.90;;;;;;2075962;28;20038;-80
2023/03/07 02:15:26;;;;;;;39.15;23.45;;;2.30;99.90;;;;;;2077865;28;20029;-78
2023/03/07 02:16:26;;;;;;;38.03;22.52;;;2.30;99.90;;;;;;2082955;28;20032;-78
2023/03/07 02:17:27;;;;;;;38.20;23.02;;;2.30;99.90;;;;;;2076448;28;20041;-79
2023/03/07 02:18:32;;;;;;;38.78;23.05;;;2.30;99.90;;;;;;2082180;28;20107;-79
2023/03/07 02:19:50;;;;;;;40.40;23.15;;;2.30;99.90;;;;;;2074801;28;20555;-78
2023/03/07 02:21:04;;;;;;;39.85;22.90;;;2.30;99.90;;;;;;2073840;28;20037;-80
2023/03/07 02:22:12;;;;;;;41.47;23.25;;;2.30;99.90;;;;;;2076018;28;20057;-81
2023/03/07 02:23:24;;;;;;;44.25;25.63;;;2.40;99.90;;;;;;2082424;28;20408;-79
2023/03/07 02:24:32;;;;;;;40.53;23.85;;;2.40;99.90;;;;;;2089535;28;20574;-81
2023/03/07 02:25:45;;;;;;;42.47;24.65;;;2.40;99.90;;;;;;2089352;28;20395;-80
2023/03/07 02:26:48;;;;;;;38.58;22.80;;;2.40;99.90;;;;;;2074594;28;20087;-81
2023/03/07 02:27:51;;;;;;;39.83;22.98;;;2.40;99.90;;;;;;2078140;28;20117;-80
2023/03/07 02:28:53;;;;;;;38.78;22.77;;;2.40;99.90;;;;;;2090924;28;20020;-81
2023/03/07 02:29:54;;;;;;;39.22;23.00;;;2.40;99.90;;;;;;2084416;28;20504;-80
2023/03/07 02:30:58;;;;;;;42.42;24.05;;;2.40;99.90;;;;;;2077851;28;20048;-78
2023/03/07 02:32:00;;;;;;;40.80;23.23;;;2.50;99.90;;;;;;2090254;28;20035;-81
2023/03/07 02:33:00;;;;;;;39.63;23.80;;;2.50;99.90;;;;;;2081186;28;20025;-79
2023/03/07 02:34:01;;;;;;;38.33;22.52;;;2.50;99.90;;;;;;2070052;28;20171;-78
2023/03/07 02:35:15;;;;;;;40.78;23.60;;;2.60;99.90;;;;;;2073277;28;20083;-80
2023/03/07 02:36:33;;;;;;;38.65;22.38;;;2.50;99.90;;;;;;2078650;28;20825;-82
2023/03/07 02:38:03;;;;;;;38.47;22.17;;;2.60;99.90;;;;;;2084800;28;20040;-80
2023/03/07 02:39:05;;;;;;;39.70;23.13;;;2.60;99.90;;;;;;2082776;28;20063;-81
2023/03/07 02:40:11;;;;;;;39.13;23.33;;;2.60;99.90;;;;;;2083263;28;20048;-81
2023/03/07 02:41:13;;;;;;;36.42;21.83;;;2.60;99.90;;;;;;2086911;28;20024;-79
2023/03/07 02:42:24;;;;;;;36.50;21.50;;;2.60;99.90;;;;;;2087653;28;20017;-81
2023/03/07 02:43:30;;;;;;;38.38;22.45;;;2.70;99.90;;;;;;2082665;28;20032;-81
2023/03/07 02:44:31;;;;;;;37.13;22.05;;;2.70;99.90;;;;;;2074560;28;20053;-81
2023/03/07 02:45:31;;;;;;;39.90;23.42;;;2.70;99.90;;;;;;2069506;28;20030;-79
2023/03/07 02:46:32;;;;;;;38.55;22.27;;;2.70;99.90;;;;;;2076381;28;20354;-80
2023/03/07 02:47:32;;;;;;;38.92;22.40;;;2.70;99.90;;;;;;2079456;28;20040;-80
2023/03/07 02:48:33;;;;;;;37.03;21.85;;;2.70;99.90;;;;;;2072623;28;20025;-79
2023/03/07 02:49:35;;;;;;;36.95;22.05;;;2.70;99.90;;;;;;2074499;28;20140;-80
2023/03/07 02:50:36;;;;;;;36.78;21.60;;;2.70;99.90;;;;;;2071389;28;20037;-80
2023/03/07 02:51:37;;;;;;;38.28;22.52;;;2.80;99.90;;;;;;2076280;28;20036;-82
2023/03/07 02:52:38;;;;;;;36.55;21.80;;;2.70;99.90;;;;;;2081785;28;20051;-81
2023/03/07 02:53:39;;;;;;;37.75;21.33;;;2.80;99.90;;;;;;2092283;28;20086;-80
2023/03/07 02:54:40;;;;;;;35.72;22.20;;;2.80;99.90;;;;;;2098328;28;20892;-81
2023/03/07 02:55:40;;;;;;;38.50;22.73;;;2.80;99.90;;;;;;2088068;28;20123;-81
2023/03/07 02:56:41;;;;;;;39.05;22.35;;;2.80;99.90;;;;;;2087581;28;20096;-80
2023/03/07 02:57:42;;;;;;;35.70;22.02;;;2.80;99.90;;;;;;2087645;28;20025;-81
2023/03/07 02:58:43;;;;;;;33.63;20.90;;;2.70;99.90;;;;;;2087417;28;20021;-80
2023/03/07 02:59:44;;;;;;;35.28;21.45;;;2.70;99.90;;;;;;2088835;28;20021;-80
2023/03/07 03:00:44;;;;;;;36.42;21.65;;;2.70;99.90;;;;;;2085917;28;20139;-79
2023/03/07 03:01:45;;;;;;;37.10;21.77;;;2.70;99.90;;;;;;2086119;28;20063;-80
2023/03/07 03:02:46;;;;;;;38.55;22.55;;;2.70;99.90;;;;;;2085889;28;20765;-80
2023/03/07 03:03:46;;;;;;;36.88;21.42;;;2.70;99.90;;;;;;2087841;28;20040;-80
2023/03/07 03:04:48;;;;;;;34.05;21.02;;;2.70;99.90;;;;;;2074301;28;20144;-81
2023/03/07 03:05:48;;;;;;;37.25;21.65;;;2.60;99.90;;;;;;2081556;28;20029;-80
2023/03/07 03:06:49;;;;;;;34.10;20.20;;;2.60;99.90;;;;;;2079874;28;20089;-80
2023/03/07 03:07:50;;;;;;;37.03;22.95;;;2.60;99.90;;;;;;2075996;28;20024;-81
2023/03/07 03:08:51;;;;;;;38.28;22.30;;;2.60;99.90;;;;;;2077358;28;20021;-81
2023/03/07 03:09:51;;;;;;;36.80;22.55;;;2.60;99.90;;;;;;2086841;28;20024;-81
2023/03/07 03:10:53;;;;;;;38.05;22.05;;;2.60;99.90;;;;;;2080795;28;20527;-81
2023/03/07 03:11:55;;;;;;;37.50;22.30;;;2.50;99.90;;;;;;2079352;28;20059;-81
2023/03/07 03:12:58;;;;;;;36.03;21.50;;;2.50;99.90;;;;;;2083894;28;20021;-81
2023/03/07 03:13:59;;;;;;;36.60;21.77;;;2.50;99.90;;;;;;2064080;28;20533;-81
2023/03/07 03:15:02;;;;;;;36.63;21.80;;;2.50;99.90;;;;;;2072600;28;20044;-80
2023/03/07 03:16:03;;;;;;;37.42;21.67;;;2.50;99.90;;;;;;2065919;28;20459;-80
2023/03/07 03:17:04;;;;;;;36.20;21.77;;;2.50;99.90;;;;;;2080481;28;20021;-81
2023/03/07 03:18:04;;;;;;;36.05;21.88;;;2.50;99.90;;;;;;2084592;28;20036;-81
2023/03/07 03:19:06;;;;;;;36.10;21.70;;;2.50;99.90;;;;;;2073592;28;20120;-79
2023/03/07 03:20:11;;;;;;;35.78;21.65;;;2.50;99.90;;;;;;2077529;28;20029;-80
2023/03/07 03:21:13;;;;;;;35.08;21.63;;;2.40;99.90;;;;;;2080242;28;20025;-80
2023/03/07 03:22:13;;;;;;;33.30;19.88;;;2.50;99.90;;;;;;2080132;28;20056;-80
2023/03/07 03:23:18;;;;;;;34.00;21.52;;;2.50;99.90;;;;;;2082339;28;20086;-80
2023/03/07 03:24:18;;;;;;;37.17;22.20;;;2.40;99.90;;;;;;2088520;28;20109;-80
2023/03/07 03:25:22;;;;;;;36.78;21.52;;;2.40;99.90;;;;;;2078942;28;20041;-79
2023/03/07 03:26:23;;;;;;;35.92;21.85;;;2.40;99.90;;;;;;2079710;28;20029;-80
2023/03/07 03:27:24;;;;;;;34.03;21.25;;;2.50;99.90;;;;;;2072063;28;20079;-80
2023/03/07 03:28:25;;;;;;;35.15;20.83;;;2.50;99.90;;;;;;2081929;28;20122;-79
2023/03/07 03:29:26;;;;;;;34.97;20.92;;;2.50;99.90;;;;;;2090288;28;20643;-80
2023/03/07 03:30:34;;;;;;;34.05;20.92;;;2.50;99.90;;;;;;2079251;28;20044;-80
2023/03/07 03:31:35;;;;;;;33.92;20.88;;;2.50;99.90;;;;;;2062813;28;20519;-80
2023/03/07 03:32:38;;;;;;;34.08;20.13;;;2.50;99.90;;;;;;2075953;28;20075;-81
2023/03/07 03:33:42;;;;;;;33.25;20.75;;;2.50;99.90;;;;;;2075887;28;20459;-80
2023/03/07 03:34:43;;;;;;;33.63;20.50;;;2.50;99.90;;;;;;2074045;28;20056;-80
2023/03/07 03:35:44;;;;;;;37.25;20.75;;;2.50;99.90;;;;;;2090239;28;20146;-80
2023/03/07 03:36:44;;;;;;;35.13;20.95;;;2.50;99.90;;;;;;2089990;28;20028;-80
2023/03/07 03:37:45;;;;;;;34.33;20.33;;;2.50;99.90;;;;;;2087233;28;20098;-79
2023/03/07 03:38:46;;;;;;;35.20;21.00;;;2.40;99.90;;;;;;2079645;28;20082;-79
2023/03/07 03:39:47;;;;;;;34.10;21.10;;;2.50;99.90;;;;;;2090404;28;20024;-80
2023/03/07 03:40:47;;;;;;;34.28;20.27;;;2.50;99.90;;;;;;2081915;28;20063;-79
2023/03/07 03:41:50;;;;;;;34.28;19.90;;;2.40;99.90;;;;;;2069427;28;20732;-79
2023/03/07 03:42:54;;;;;;;34.67;20.65;;;2.50;99.90;;;;;;2075505;28;20036;-79
2023/03/07 03:43:56;;;;;;;33.25;20.48;;;2.40;99.90;;;;;;2071810;28;20622;-78
2023/03/07 03:44:57;;;;;;;34.83;20.65;;;2.40;99.90;;;;;;2072280;28;20112;-82
2023/03/07 03:45:58;;;;;;;32.67;19.60;;;2.40;99.90;;;;;;2082490;28;20028;-79
2023/03/07 03:47:00;;;;;;;30.95;19.25;;;2.50;99.90;;;;;;2079896;28;20025;-81
2023/03/07 03:48:01;;;;;;;32.88;20.40;;;2.40;99.90;;;;;;2079111;28;20053;-80
2023/03/07 03:49:02;;;;;;;34.55;20.27;;;2.40;99.90;;;;;;2089439;28;20078;-81
2023/03/07 03:50:04;;;;;;;32.40;20.02;;;2.50;99.90;;;;;;2081914;28;20427;-81
2023/03/07 03:51:07;;;;;;;33.38;20.30;;;2.50;99.90;;;;;;2078128;28;20035;-81
2023/03/07 03:52:08;;;;;;;35.15;19.98;;;2.40;99.90;;;;;;2070300;28;20064;-82
2023/03/07 03:53:09;;;;;;;33.10;19.40;;;2.40;99.90;;;;;;2083297;28;20509;-82
2023/03/07 03:54:10;;;;;;;30.60;19.05;;;2.40;99.90;;;;;;2091227;28;20036;-83
2023/03/07 03:55:11;;;;;;;31.80;19.67;;;2.40;99.90;;;;;;2083771;28;20021;-81
2023/03/07 03:56:14;;;;;;;32.38;19.73;;;2.40;99.90;;;;;;2081682;28;20450;-83
2023/03/07 03:57:17;;;;;;;35.55;20.02;;;2.40;99.90;;;;;;2080430;28;20606;-81
2023/03/07 03:58:18;;;;;;;29.80;18.50;;;2.40;99.90;;;;;;2086932;28;20522;-81
2023/03/07 03:59:19;;;;;;;33.42;19.65;;;2.30;99.90;;;;;;2080138;28;20024;-82
2023/03/07 04:00:20;;;;;;;31.45;19.42;;;2.30;99.90;;;;;;2078653;28;20028;-81
2023/03/07 04:01:23;;;;;;;33.53;19.02;;;2.30;99.90;;;;;;2082080;28;20033;-79
2023/03/07 04:02:23;;;;;;;33.85;19.35;;;2.30;99.90;;;;;;2077791;28;20520;-80
2023/03/07 04:03:25;;;;;;;32.95;19.38;;;2.30;99.90;;;;;;2083870;28;20110;-80
2023/03/07 04:04:25;;;;;;;34.58;19.92;;;2.30;99.90;;;;;;2070845;28;20037;-80
2023/03/07 04:05:26;;;;;;;30.65;18.40;;;2.30;99.90;;;;;;2073622;28;20666;-79
2023/03/07 04:06:31;;;;;;;32.60;19.10;;;2.40;99.90;;;;;;2076144;28;20105;-80
2023/03/07 04:07:32;;;;;;;31.00;18.83;;;2.40;99.90;;;;;;2071215;28;20033;-80
2023/03/07 04:08:34;;;;;;;31.88;18.67;;;2.40;99.90;;;;;;2083906;28;20025;-80
2023/03/07 04:09:34;;;;;;;31.58;18.80;;;2.40;99.90;;;;;;2074329;28;20517;-81
2023/03/07 04:10:35;;;;;;;31.25;18.73;;;2.40;99.90;;;;;;2081940;28;20025;-80
2023/03/07 04:11:36;;;;;;;31.85;18.52;;;2.40;99.90;;;;;;2069342;28;20419;-82
2023/03/07 04:12:36;;;;;;;30.15;18.30;;;2.40;99.90;;;;;;2085918;28;20037;-81
2023/03/07 04:13:38;;;;;;;31.52;18.52;;;2.40;99.90;;;;;;2090107;28;20503;-81
2023/03/07 04:14:38;;;;;;;30.45;18.48;;;2.40;99.90;;;;;;2081883;28;20112;-81
2023/03/07 04:15:39;;;;;;;28.65;17.42;;;2.40;99.90;;;;;;2083727;28;20025;-81
2023/03/07 04:16:40;;;;;;;30.17;17.42;;;2.30;99.90;;;;;;2090244;28;20456;-82
2023/03/07 04:17:40;;;;;;;29.65;17.80;;;2.30;99.90;;;;;;2081824;28;20110;-80
2023/03/07 04:18:41;;;;;;;29.50;18.33;;;2.20;99.90;;;;;;2074014;28;20037;-82
2023/03/07 04:19:42;;;;;;;28.65;17.80;;;2.20;99.90;;;;;;2092425;28;20044;-80
2023/03/07 04:20:44;;;;;;;28.98;17.42;;;2.20;99.90;;;;;;2086216;28;20789;-80
2023/03/07 04:21:44;;;;;;;29.65;18.05;;;2.20;99.90;;;;;;2091115;28;20032;-79
2023/03/07 04:22:49;;;;;;;28.85;17.60;;;2.20;99.90;;;;;;2077761;28;20060;-80
2023/03/07 04:23:54;;;;;;;31.80;18.95;;;2.10;99.90;;;;;;2065969;28;20029;-79
2023/03/07 04:24:55;;;;;;;31.73;18.40;;;2.10;99.90;;;;;;2069626;28;20022;-80
2023/03/07 04:25:59;;;;;;;36.45;19.35;;;2.10;99.90;;;;;;2063840;28;20026;-80
2023/03/07 04:27:00;;;;;;;31.98;18.65;;;2.10;99.90;;;;;;2077270;28;20424;-80
2023/03/07 04:28:01;;;;;;;31.75;18.52;;;2.10;99.90;;;;;;2080048;28;20499;-79
2023/03/07 04:29:03;;;;;;;32.25;18.20;;;2.10;99.90;;;;;;2078820;28;20055;-80
2023/03/07 04:30:14;;;;;;;30.38;18.85;;;2.10;99.90;;;;;;2080369;28;20090;-80
2023/03/07 04:31:18;;;;;;;29.35;17.90;;;2.10;99.90;;;;;;2069859;28;20022;-78
2023/03/07 04:32:19;;;;;;;28.92;17.73;;;2.10;99.90;;;;;;2071121;28;20041;-79
2023/03/07 04:33:20;;;;;;;29.90;17.00;;;2.20;99.90;;;;;;2092415;28;20411;-79
2023/03/07 04:34:22;;;;;;;26.77;16.58;;;2.20;99.90;;;;;;2074375;28;20034;-78
2023/03/07 04:35:23;;;;;;;29.02;16.83;;;2.30;99.90;;;;;;2085427;28;20028;-78
2023/03/07 04:36:24;;;;;;;28.63;17.25;;;2.30;99.90;;;;;;2090318;28;20423;-77
2023/03/07 04:37:25;;;;;;;30.42;17.67;;;2.30;99.90;;;;;;2082138;28;20029;-79
2023/03/07 04:38:26;;;;;;;29.67;16.77;;;2.40;99.90;;;;;;2075860;28;20044;-74
2023/03/07 04:39:26;;;;;;;30.38;17.45;;;2.40;99.90;;;;;;2089967;28;20959;-75
2023/03/07 04:40:27;;;;;;;29.27;16.65;;;2.40;99.90;;;;;;2091067;28;20036;-77
2023/03/07 04:41:27;;;;;;;27.38;16.63;;;2.40;99.90;;;;;;2091747;28;20062;-76
2023/03/07 04:42:45;;;;;;;27.67;16.10;;;2.50;99.90;;;;;;2082006;28;20063;-77
2023/03/07 04:43:47;;;;;;;27.48;16.35;;;2.40;99.90;;;;;;2083661;28;20468;-77
2023/03/07 04:44:47;;;;;;;28.35;16.75;;;2.50;99.90;;;;;;2085262;28;20234;-78
2023/03/07 04:45:48;;;;;;;32.83;17.50;;;2.50;99.90;;;;;;2083232;28;20041;-77
2023/03/07 04:46:48;;;;;;;29.70;17.00;;;2.50;99.90;;;;;;2079813;28;20026;-78
2023/03/07 04:47:50;;;;;;;26.17;16.33;;;2.50;99.90;;;;;;2084934;28;20043;-78
2023/03/07 04:48:50;;;;;;;28.20;16.35;;;2.50;99.90;;;;;;2086581;28;20025;-78
2023/03/07 04:49:52;;;;;;;28.40;17.25;;;2.50;99.90;;;;;;2075342;28;20057;-78
2023/03/07 04:50:53;;;;;;;25.88;15.60;;;2.40;99.90;;;;;;2082830;28;20056;-78
2023/03/07 04:51:54;;;;;;;29.98;17.77;;;2.40;99.90;;;;;;2087517;28;20078;-78
2023/03/07 04:52:55;;;;;;;31.77;17.88;;;2.50;99.90;;;;;;2080539;28;20017;-77
2023/03/07 04:53:55;;;;;;;31.42;17.88;;;2.50;99.90;;;;;;2062610;28;20083;-77
2023/03/07 04:54:56;;;;;;;29.80;17.25;;;2.40;99.90;;;;;;2081947;28;20795;-77
2023/03/07 04:55:58;;;;;;;30.08;17.92;;;2.50;99.90;;;;;;2078769;28;20716;-77
2023/03/07 04:56:59;;;;;;;37.30;20.20;;;2.40;99.90;;;;;;2073156;28;20068;-77
2023/03/07 04:58:00;;;;;;;43.03;21.95;;;2.50;99.90;;;;;;2069100;28;20032;-77
2023/03/07 04:59:00;;;;;;;44.67;22.35;;;2.40;99.90;;;;;;2078429;28;20070;-78
2023/03/07 05:00:02;;;;;;;42.67;21.95;;;2.40;99.90;;;;;;2076920;28;20493;-77
2023/03/07 05:01:03;;;;;;;55.33;25.48;;;2.40;99.90;;;;;;2077898;28;20084;-78
2023/03/07 05:02:10;;;;;;;54.42;25.88;;;2.40;99.90;;;;;;2081502;28;20129;-77
2023/03/07 05:03:12;;;;;;;66.85;29.45;;;2.40;99.90;;;;;;2077398;28;20381;-77
2023/03/07 05:04:13;;;;;;;60.03;29.08;;;2.40;99.90;;;;;;2072570;28;20026;-77
2023/03/07 05:05:14;;;;;;;40.60;22.33;;;2.40;99.90;;;;;;2093421;28;20045;-77
2023/03/07 05:06:17;;;;;;;33.50;18.88;;;2.40;99.90;;;;;;2087003;28;20149;-77
2023/03/07 05:07:22;;;;;;;35.50;18.75;;;2.40;99.90;;;;;;2083447;28;20079;-77
2023/03/07 05:08:24;;;;;;;33.13;18.20;;;2.50;99.90;;;;;;2074082;28;20029;-77
2023/03/07 05:09:25;;;;;;;44.03;22.30;;;2.50;99.90;;;;;;2080932;28;20221;-77
2023/03/07 05:10:25;;;;;;;49.30;23.27;;;2.50;99.90;;;;;;2090370;28;20036;-77
2023/03/07 05:11:26;;;;;;;50.15;24.20;;;2.50;99.90;;;;;;2087900;28;20175;-77
2023/03/07 05:12:27;;;;;;;40.70;22.15;;;2.50;99.90;;;;;;2080443;28;20025;-77
2023/03/07 05:13:29;;;;;;;36.05;20.35;;;2.50;99.90;;;;;;2073104;28;20571;-76
2023/03/07 05:14:29;;;;;;;36.38;20.20;;;2.50;99.90;;;;;;2085323;28;20052;-75
2023/03/07 05:15:30;;;;;;;36.83;19.65;;;2.50;99.90;;;;;;2081592;28;20119;-77
2023/03/07 05:16:32;;;;;;;33.60;19.25;;;2.60;99.90;;;;;;2074021;28;20033;-77
2023/03/07 05:17:32;;;;;;;44.25;22.00;;;2.60;99.90;;;;;;2092747;28;20475;-76
2023/03/07 05:18:33;;;;;;;39.42;20.48;;;2.60;99.90;;;;;;2090544;28;20119;-77
2023/03/07 05:19:34;;;;;;;37.13;20.02;;;2.60;99.90;;;;;;2072586;28;20068;-77
2023/03/07 05:20:35;;;;;;;37.55;20.38;;;2.60;99.90;;;;;;2069635;28;20084;-80